sensor_id;sensor_type;location;lat;lon;timestamp;P1;durP1;ratioP1;P2;durP2;ratioP2
21030;SDS011;61072;47.808;7.636;2022-09-12T00:01:19;3.88;;;1.63;;
21030;SDS011;61072;47.808;7.636;2022-09-12T00:03:49;9.73;;;1.97;;
21030;SDS011;61072;47.808;7.636;2022-09-12T00:06:25;5.13;;;1.75;;
21030;SDS011;61072;47.808;7.636;2022-09-12T00:08:54;3.70;;;2.17;;
21030;SDS011;61072;47.808;7.636;2022-09-12T00:11:23;4.15;;;1.77;;
21030;SDS011;61072;47.808;7.636;2022-09-12T00:13:49;5.82;;;1.70;;
21030;SDS011;61072;47.808;7.636;2022-09-12T00:16:21;4.57;;;1.90;;
21030;SDS011;61072;47.808;7.636;2022-09-12T00:18:49;3.45;;;1.70;;
21030;SDS011;61072;47.808;7.636;2022-09-12T00:21:17;4.63;;;1.58;;
21030;SDS011;61072;47.808;7.636;2022-09-12T00:23:45;7.55;;;1.80;;
21030;SDS011;61072;47.808;7.636;2022-09-12T00:26:12;1.90;;;1.70;;
21030;SDS011;61072;47.808;7.636;2022-09-12T00:28:40;5.45;;;2.10;;
21030;SDS011;61072;47.808;7.636;2022-09-12T00:31:08;11.48;;;2.05;;
21030;SDS011;61072;47.808;7.636;2022-09-12T00:33:38;3.88;;;1.60;;
21030;SDS011;61072;47.808;7.636;2022-09-12T00:36:06;4.97;;;1.60;;
21030;SDS011;61072;47.808;7.636;2022-09-12T00:38:34;4.60;;;2.30;;
21030;SDS011;61072;47.808;7.636;2022-09-12T00:41:04;7.88;;;1.60;;
21030;SDS011;61072;47.808;7.636;2022-09-12T00:43:32;6.35;;;1.73;;
21030;SDS011;61072;47.808;7.636;2022-09-12T00:46:05;4.93;;;2.00;;
21030;SDS011;61072;47.808;7.636;2022-09-12T00:48:45;3.25;;;1.95;;
21030;SDS011;61072;47.808;7.636;2022-09-12T00:51:34;5.50;;;2.00;;
21030;SDS011;61072;47.808;7.636;2022-09-12T00:54:04;3.35;;;2.00;;
21030;SDS011;61072;47.808;7.636;2022-09-12T00:56:35;2.53;;;2.03;;
21030;SDS011;61072;47.808;7.636;2022-09-12T00:59:09;2.30;;;1.88;;
21030;SDS011;61072;47.808;7.636;2022-09-12T01:01:43;3.83;;;1.95;;
21030;SDS011;61072;47.808;7.636;2022-09-12T01:04:13;4.28;;;2.08;;
21030;SDS011;61072;47.808;7.636;2022-09-12T01:06:42;7.43;;;2.58;;
21030;SDS011;61072;47.808;7.636;2022-09-12T01:09:11;3.35;;;2.33;;
21030;SDS011;61072;47.808;7.636;2022-09-12T01:14:07;3.42;;;2.08;;
21030;SDS011;61072;47.808;7.636;2022-09-12T01:16:34;15.32;;;3.70;;
21030;SDS011;61072;47.808;7.636;2022-09-12T01:19:11;4.35;;;2.28;;
21030;SDS011;61072;47.808;7.636;2022-09-12T01:24:58;4.03;;;2.53;;
21030;SDS011;61072;47.808;7.636;2022-09-12T01:36:18;3.88;;;1.90;;
21030;SDS011;61072;47.808;7.636;2022-09-12T01:41:42;5.45;;;2.35;;
21030;SDS011;61072;47.808;7.636;2022-09-12T01:44:40;5.28;;;1.90;;
21030;SDS011;61072;47.808;7.636;2022-09-12T01:50:35;4.03;;;1.85;;
21030;SDS011;61072;47.808;7.636;2022-09-12T01:53:07;6.85;;;2.22;;
21030;SDS011;61072;47.808;7.636;2022-09-12T01:56:26;3.45;;;1.98;;
21030;SDS011;61072;47.808;7.636;2022-09-12T02:01:34;4.38;;;2.00;;
21030;SDS011;61072;47.808;7.636;2022-09-12T02:04:14;2.20;;;1.95;;
21030;SDS011;61072;47.808;7.636;2022-09-12T02:06:56;8.93;;;2.80;;
21030;SDS011;61072;47.808;7.636;2022-09-12T02:09:28;5.18;;;2.30;;
21030;SDS011;61072;47.808;7.636;2022-09-12T02:12:01;7.70;;;3.38;;
21030;SDS011;61072;47.808;7.636;2022-09-12T02:14:31;5.85;;;2.67;;
21030;SDS011;61072;47.808;7.636;2022-09-12T02:17:12;6.30;;;3.03;;
21030;SDS011;61072;47.808;7.636;2022-09-12T02:19:46;3.72;;;2.40;;
21030;SDS011;61072;47.808;7.636;2022-09-12T02:22:19;4.65;;;2.50;;
21030;SDS011;61072;47.808;7.636;2022-09-12T02:24:49;3.42;;;2.08;;
21030;SDS011;61072;47.808;7.636;2022-09-12T02:27:23;4.75;;;2.70;;
21030;SDS011;61072;47.808;7.636;2022-09-12T02:29:57;3.63;;;2.70;;
21030;SDS011;61072;47.808;7.636;2022-09-12T02:39:57;6.50;;;2.20;;
21030;SDS011;61072;47.808;7.636;2022-09-12T02:42:25;4.78;;;2.40;;
21030;SDS011;61072;47.808;7.636;2022-09-12T02:44:52;2.50;;;2.28;;
21030;SDS011;61072;47.808;7.636;2022-09-12T02:50:07;3.25;;;2.50;;
21030;SDS011;61072;47.808;7.636;2022-09-12T02:52:35;8.38;;;2.70;;
21030;SDS011;61072;47.808;7.636;2022-09-12T02:55:03;5.13;;;3.13;;
21030;SDS011;61072;47.808;7.636;2022-09-12T02:57:31;5.10;;;3.40;;
21030;SDS011;61072;47.808;7.636;2022-09-12T02:59:59;3.67;;;2.53;;
21030;SDS011;61072;47.808;7.636;2022-09-12T03:05:30;6.40;;;2.60;;
21030;SDS011;61072;47.808;7.636;2022-09-12T03:11:01;3.83;;;2.88;;
21030;SDS011;61072;47.808;7.636;2022-09-12T03:19:53;6.50;;;3.50;;
21030;SDS011;61072;47.808;7.636;2022-09-12T03:22:14;3.17;;;2.80;;
21030;SDS011;61072;47.808;7.636;2022-09-12T03:25:15;5.78;;;2.30;;
21030;SDS011;61072;47.808;7.636;2022-09-12T03:27:57;3.00;;;2.60;;
21030;SDS011;61072;47.808;7.636;2022-09-12T03:30:35;6.05;;;2.65;;
21030;SDS011;61072;47.808;7.636;2022-09-12T03:33:03;4.43;;;2.75;;
21030;SDS011;61072;47.808;7.636;2022-09-12T03:35:30;7.57;;;3.70;;
21030;SDS011;61072;47.808;7.636;2022-09-12T03:37:57;5.05;;;2.72;;
21030;SDS011;61072;47.808;7.636;2022-09-12T03:40:24;7.18;;;2.85;;
21030;SDS011;61072;47.808;7.636;2022-09-12T03:42:50;5.88;;;3.45;;
21030;SDS011;61072;47.808;7.636;2022-09-12T03:45:17;7.13;;;3.03;;
21030;SDS011;61072;47.808;7.636;2022-09-12T03:47:43;2.72;;;2.35;;
21030;SDS011;61072;47.808;7.636;2022-09-12T03:50:10;5.25;;;3.08;;
21030;SDS011;61072;47.808;7.636;2022-09-12T03:52:37;6.20;;;2.75;;
21030;SDS011;61072;47.808;7.636;2022-09-12T03:55:04;3.25;;;2.28;;
21030;SDS011;61072;47.808;7.636;2022-09-12T03:57:31;5.03;;;2.78;;
21030;SDS011;61072;47.808;7.636;2022-09-12T03:59:58;4.05;;;2.20;;
21030;SDS011;61072;47.808;7.636;2022-09-12T04:02:24;8.63;;;2.75;;
21030;SDS011;61072;47.808;7.636;2022-09-12T04:04:51;5.03;;;2.60;;
21030;SDS011;61072;47.808;7.636;2022-09-12T04:07:18;6.97;;;3.28;;
21030;SDS011;61072;47.808;7.636;2022-09-12T04:09:45;5.95;;;2.80;;
21030;SDS011;61072;47.808;7.636;2022-09-12T04:12:12;6.93;;;2.83;;
21030;SDS011;61072;47.808;7.636;2022-09-12T04:14:39;6.10;;;2.75;;
21030;SDS011;61072;47.808;7.636;2022-09-12T04:17:06;4.78;;;2.92;;
21030;SDS011;61072;47.808;7.636;2022-09-12T04:19:33;6.90;;;2.53;;
21030;SDS011;61072;47.808;7.636;2022-09-12T04:22:00;4.20;;;2.95;;
21030;SDS011;61072;47.808;7.636;2022-09-12T04:24:27;6.65;;;2.78;;
21030;SDS011;61072;47.808;7.636;2022-09-12T04:26:53;5.07;;;2.80;;
21030;SDS011;61072;47.808;7.636;2022-09-12T04:29:20;4.43;;;2.35;;
21030;SDS011;61072;47.808;7.636;2022-09-12T04:31:47;3.88;;;2.75;;
21030;SDS011;61072;47.808;7.636;2022-09-12T04:34:14;5.60;;;2.90;;
21030;SDS011;61072;47.808;7.636;2022-09-12T04:36:41;7.45;;;2.90;;
21030;SDS011;61072;47.808;7.636;2022-09-12T04:39:08;5.80;;;3.20;;
21030;SDS011;61072;47.808;7.636;2022-09-12T04:41:37;7.85;;;2.90;;
21030;SDS011;61072;47.808;7.636;2022-09-12T04:44:12;10.07;;;2.67;;
21030;SDS011;61072;47.808;7.636;2022-09-12T04:46:41;4.75;;;2.60;;
21030;SDS011;61072;47.808;7.636;2022-09-12T04:49:12;4.07;;;2.70;;
21030;SDS011;61072;47.808;7.636;2022-09-12T04:51:41;4.53;;;3.03;;
21030;SDS011;61072;47.808;7.636;2022-09-12T04:54:13;6.72;;;2.97;;
21030;SDS011;61072;47.808;7.636;2022-09-12T04:56:43;4.53;;;2.97;;
21030;SDS011;61072;47.808;7.636;2022-09-12T04:59:12;6.30;;;3.20;;
21030;SDS011;61072;47.808;7.636;2022-09-12T05:01:40;4.70;;;3.05;;
21030;SDS011;61072;47.808;7.636;2022-09-12T05:04:13;4.40;;;3.03;;
21030;SDS011;61072;47.808;7.636;2022-09-12T05:06:41;5.95;;;3.80;;
21030;SDS011;61072;47.808;7.636;2022-09-12T05:09:12;6.53;;;5.50;;
21030;SDS011;61072;47.808;7.636;2022-09-12T05:11:40;11.48;;;7.28;;
21030;SDS011;61072;47.808;7.636;2022-09-12T05:14:28;11.35;;;7.65;;
21030;SDS011;61072;47.808;7.636;2022-09-12T05:16:56;11.63;;;7.20;;
21030;SDS011;61072;47.808;7.636;2022-09-12T05:19:26;9.10;;;5.88;;
21030;SDS011;61072;47.808;7.636;2022-09-12T05:21:53;9.55;;;6.05;;
21030;SDS011;61072;47.808;7.636;2022-09-12T05:24:20;7.28;;;4.95;;
21030;SDS011;61072;47.808;7.636;2022-09-12T05:26:47;9.02;;;4.00;;
21030;SDS011;61072;47.808;7.636;2022-09-12T05:29:13;7.82;;;3.60;;
21030;SDS011;61072;47.808;7.636;2022-09-12T05:31:40;10.90;;;4.80;;
21030;SDS011;61072;47.808;7.636;2022-09-12T05:34:07;5.60;;;3.42;;
21030;SDS011;61072;47.808;7.636;2022-09-12T05:36:35;7.93;;;3.60;;
21030;SDS011;61072;47.808;7.636;2022-09-12T05:39:02;10.27;;;3.40;;
21030;SDS011;61072;47.808;7.636;2022-09-12T05:41:30;5.55;;;3.10;;
21030;SDS011;61072;47.808;7.636;2022-09-12T05:43:59;9.68;;;3.90;;
21030;SDS011;61072;47.808;7.636;2022-09-12T05:46:28;3.47;;;2.80;;
21030;SDS011;61072;47.808;7.636;2022-09-12T05:49:02;4.05;;;3.10;;
21030;SDS011;61072;47.808;7.636;2022-09-12T05:51:32;6.78;;;2.75;;
21030;SDS011;61072;47.808;7.636;2022-09-12T05:54:01;3.55;;;2.58;;
21030;SDS011;61072;47.808;7.636;2022-09-12T05:56:30;5.35;;;2.78;;
21030;SDS011;61072;47.808;7.636;2022-09-12T05:59:02;3.15;;;2.70;;
21030;SDS011;61072;47.808;7.636;2022-09-12T06:01:31;7.72;;;3.00;;
21030;SDS011;61072;47.808;7.636;2022-09-12T06:04:00;4.10;;;2.55;;
21030;SDS011;61072;47.808;7.636;2022-09-12T06:06:29;4.18;;;2.35;;
21030;SDS011;61072;47.808;7.636;2022-09-12T06:08:57;4.07;;;2.97;;
21030;SDS011;61072;47.808;7.636;2022-09-12T06:11:27;2.83;;;2.33;;
21030;SDS011;61072;47.808;7.636;2022-09-12T06:13:56;4.25;;;2.65;;
21030;SDS011;61072;47.808;7.636;2022-09-12T06:16:24;3.53;;;2.22;;
21030;SDS011;61072;47.808;7.636;2022-09-12T06:18:54;5.57;;;2.78;;
21030;SDS011;61072;47.808;7.636;2022-09-12T06:21:28;3.20;;;2.10;;
21030;SDS011;61072;47.808;7.636;2022-09-12T06:23:59;4.25;;;2.72;;
21030;SDS011;61072;47.808;7.636;2022-09-12T06:26:27;2.33;;;2.05;;
21030;SDS011;61072;47.808;7.636;2022-09-12T06:28:54;4.03;;;2.45;;
21030;SDS011;61072;47.808;7.636;2022-09-12T06:31:23;2.95;;;2.40;;
21030;SDS011;61072;47.808;7.636;2022-09-12T06:33:54;6.70;;;2.33;;
21030;SDS011;61072;47.808;7.636;2022-09-12T06:36:23;6.07;;;2.50;;
21030;SDS011;61072;47.808;7.636;2022-09-12T06:38:53;2.72;;;2.40;;
21030;SDS011;61072;47.808;7.636;2022-09-12T06:41:30;5.25;;;2.65;;
21030;SDS011;61072;47.808;7.636;2022-09-12T06:43:58;3.33;;;2.30;;
21030;SDS011;61072;47.808;7.636;2022-09-12T06:46:25;5.45;;;2.63;;
21030;SDS011;61072;47.808;7.636;2022-09-12T06:48:56;4.70;;;2.58;;
21030;SDS011;61072;47.808;7.636;2022-09-12T06:51:25;4.70;;;2.10;;
21030;SDS011;61072;47.808;7.636;2022-09-12T06:53:56;4.07;;;3.03;;
21030;SDS011;61072;47.808;7.636;2022-09-12T06:56:24;4.82;;;3.10;;
21030;SDS011;61072;47.808;7.636;2022-09-12T06:58:57;10.30;;;4.93;;
21030;SDS011;61072;47.808;7.636;2022-09-12T07:01:28;11.40;;;7.18;;
21030;SDS011;61072;47.808;7.636;2022-09-12T07:03:57;12.75;;;7.25;;
21030;SDS011;61072;47.808;7.636;2022-09-12T07:06:26;13.77;;;8.85;;
21030;SDS011;61072;47.808;7.636;2022-09-12T07:08:57;11.00;;;8.23;;
21030;SDS011;61072;47.808;7.636;2022-09-12T07:11:26;12.75;;;8.85;;
21030;SDS011;61072;47.808;7.636;2022-09-12T07:13:57;13.82;;;9.57;;
21030;SDS011;61072;47.808;7.636;2022-09-12T07:16:25;15.60;;;9.38;;
21030;SDS011;61072;47.808;7.636;2022-09-12T07:18:53;13.77;;;9.80;;
21030;SDS011;61072;47.808;7.636;2022-09-12T07:21:21;10.63;;;8.32;;
21030;SDS011;61072;47.808;7.636;2022-09-12T07:23:48;10.75;;;8.73;;
21030;SDS011;61072;47.808;7.636;2022-09-12T07:26:17;14.82;;;9.70;;
21030;SDS011;61072;47.808;7.636;2022-09-12T07:28:44;11.85;;;9.18;;
21030;SDS011;61072;47.808;7.636;2022-09-12T07:31:14;15.32;;;9.02;;
21030;SDS011;61072;47.808;7.636;2022-09-12T07:33:43;12.20;;;8.30;;
21030;SDS011;61072;47.808;7.636;2022-09-12T07:36:11;13.60;;;9.20;;
21030;SDS011;61072;47.808;7.636;2022-09-12T07:38:39;10.87;;;9.23;;
21030;SDS011;61072;47.808;7.636;2022-09-12T07:41:14;14.13;;;9.27;;
21030;SDS011;61072;47.808;7.636;2022-09-12T07:43:46;12.43;;;9.30;;
21030;SDS011;61072;47.808;7.636;2022-09-12T07:46:13;17.63;;;9.45;;
21030;SDS011;61072;47.808;7.636;2022-09-12T07:48:40;12.10;;;9.77;;
21030;SDS011;61072;47.808;7.636;2022-09-12T07:51:07;14.82;;;10.55;;
21030;SDS011;61072;47.808;7.636;2022-09-12T07:53:38;16.45;;;10.93;;
21030;SDS011;61072;47.808;7.636;2022-09-12T07:56:06;22.35;;;13.60;;
21030;SDS011;61072;47.808;7.636;2022-09-12T07:58:35;15.55;;;10.63;;
21030;SDS011;61072;47.808;7.636;2022-09-12T08:01:07;15.85;;;10.32;;
21030;SDS011;61072;47.808;7.636;2022-09-12T08:03:36;23.27;;;12.77;;
21030;SDS011;61072;47.808;7.636;2022-09-12T08:06:07;16.98;;;11.30;;
21030;SDS011;61072;47.808;7.636;2022-09-12T08:08:36;17.38;;;11.65;;
21030;SDS011;61072;47.808;7.636;2022-09-12T08:11:04;15.88;;;10.73;;
21030;SDS011;61072;47.808;7.636;2022-09-12T08:13:33;15.88;;;11.43;;
21030;SDS011;61072;47.808;7.636;2022-09-12T08:16:03;12.98;;;11.00;;
21030;SDS011;61072;47.808;7.636;2022-09-12T08:18:37;11.93;;;9.65;;
21030;SDS011;61072;47.808;7.636;2022-09-12T08:21:05;15.52;;;10.23;;
21030;SDS011;61072;47.808;7.636;2022-09-12T08:23:33;13.40;;;10.07;;
21030;SDS011;61072;47.808;7.636;2022-09-12T08:26:00;13.52;;;9.82;;
21030;SDS011;61072;47.808;7.636;2022-09-12T08:28:32;12.20;;;9.27;;
21030;SDS011;61072;47.808;7.636;2022-09-12T08:31:04;14.05;;;10.30;;
21030;SDS011;61072;47.808;7.636;2022-09-12T08:33:32;12.60;;;9.25;;
21030;SDS011;61072;47.808;7.636;2022-09-12T08:38:31;12.38;;;9.10;;
21030;SDS011;61072;47.808;7.636;2022-09-12T08:41:10;12.40;;;9.30;;
21030;SDS011;61072;47.808;7.636;2022-09-12T08:46:23;12.35;;;10.05;;
21030;SDS011;61072;47.808;7.636;2022-09-12T08:49:11;13.65;;;9.50;;
21030;SDS011;61072;47.808;7.636;2022-09-12T08:51:40;13.50;;;10.35;;
21030;SDS011;61072;47.808;7.636;2022-09-12T08:54:18;12.82;;;9.13;;
21030;SDS011;61072;47.808;7.636;2022-09-12T08:56:49;13.57;;;9.73;;
21030;SDS011;61072;47.808;7.636;2022-09-12T08:59:18;14.77;;;9.80;;
21030;SDS011;61072;47.808;7.636;2022-09-12T09:01:45;10.55;;;8.38;;
21030;SDS011;61072;47.808;7.636;2022-09-12T09:04:28;9.50;;;7.65;;
21030;SDS011;61072;47.808;7.636;2022-09-12T09:07:23;8.38;;;7.07;;
21030;SDS011;61072;47.808;7.636;2022-09-12T09:17:59;13.40;;;8.38;;
21030;SDS011;61072;47.808;7.636;2022-09-12T09:20:37;9.70;;;7.32;;
21030;SDS011;61072;47.808;7.636;2022-09-12T09:23:13;13.43;;;8.48;;
21030;SDS011;61072;47.808;7.636;2022-09-12T09:30:56;8.13;;;6.72;;
21030;SDS011;61072;47.808;7.636;2022-09-12T09:33:25;10.13;;;7.63;;
21030;SDS011;61072;47.808;7.636;2022-09-12T09:35:59;9.30;;;6.95;;
21030;SDS011;61072;47.808;7.636;2022-09-12T09:44:02;6.38;;;5.68;;
21030;SDS011;61072;47.808;7.636;2022-09-12T09:46:29;7.85;;;6.05;;
21030;SDS011;61072;47.808;7.636;2022-09-12T09:48:57;10.90;;;6.13;;
21030;SDS011;61072;47.808;7.636;2022-09-12T09:51:32;7.80;;;5.82;;
21030;SDS011;61072;47.808;7.636;2022-09-12T09:54:02;7.93;;;5.63;;
21030;SDS011;61072;47.808;7.636;2022-09-12T09:56:40;7.93;;;5.43;;
21030;SDS011;61072;47.808;7.636;2022-09-12T09:59:11;8.20;;;5.40;;
21030;SDS011;61072;47.808;7.636;2022-09-12T10:01:49;7.53;;;4.82;;
21030;SDS011;61072;47.808;7.636;2022-09-12T10:04:20;6.20;;;4.78;;
21030;SDS011;61072;47.808;7.636;2022-09-12T10:06:56;9.10;;;4.75;;
21030;SDS011;61072;47.808;7.636;2022-09-12T10:09:25;6.20;;;4.55;;
21030;SDS011;61072;47.808;7.636;2022-09-12T10:11:54;7.15;;;5.18;;
21030;SDS011;61072;47.808;7.636;2022-09-12T10:14:36;7.82;;;4.32;;
21030;SDS011;61072;47.808;7.636;2022-09-12T10:23:00;5.78;;;4.20;;
21030;SDS011;61072;47.808;7.636;2022-09-12T10:25:29;6.28;;;4.20;;
21030;SDS011;61072;47.808;7.636;2022-09-12T10:27:56;5.97;;;3.72;;
21030;SDS011;61072;47.808;7.636;2022-09-12T10:30:25;5.97;;;4.15;;
21030;SDS011;61072;47.808;7.636;2022-09-12T10:32:57;6.60;;;3.90;;
21030;SDS011;61072;47.808;7.636;2022-09-12T10:35:41;7.95;;;4.18;;
21030;SDS011;61072;47.808;7.636;2022-09-12T10:38:16;8.25;;;2.92;;
21030;SDS011;61072;47.808;7.636;2022-09-12T10:40:54;6.40;;;3.55;;
21030;SDS011;61072;47.808;7.636;2022-09-12T10:43:39;4.47;;;2.75;;
21030;SDS011;61072;47.808;7.636;2022-09-12T10:48:40;6.50;;;3.35;;
21030;SDS011;61072;47.808;7.636;2022-09-12T10:54:08;7.70;;;3.25;;
21030;SDS011;61072;47.808;7.636;2022-09-12T10:56:46;5.53;;;3.25;;
21030;SDS011;61072;47.808;7.636;2022-09-12T11:08:33;6.63;;;3.13;;
21030;SDS011;61072;47.808;7.636;2022-09-12T11:11:33;3.58;;;2.38;;
21030;SDS011;61072;47.808;7.636;2022-09-12T11:17:08;5.30;;;2.53;;
21030;SDS011;61072;47.808;7.636;2022-09-12T11:28:22;5.05;;;2.60;;
21030;SDS011;61072;47.808;7.636;2022-09-12T11:33:40;3.28;;;2.42;;
21030;SDS011;61072;47.808;7.636;2022-09-12T11:36:22;3.90;;;2.45;;
21030;SDS011;61072;47.808;7.636;2022-09-12T11:41:47;4.25;;;2.90;;
21030;SDS011;61072;47.808;7.636;2022-09-12T11:46:49;7.07;;;2.28;;
21030;SDS011;61072;47.808;7.636;2022-09-12T11:49:40;5.15;;;2.10;;
21030;SDS011;61072;47.808;7.636;2022-09-12T11:52:13;2.95;;;1.77;;
21030;SDS011;61072;47.808;7.636;2022-09-12T11:54:59;5.38;;;2.13;;
21030;SDS011;61072;47.808;7.636;2022-09-12T11:57:38;2.72;;;2.03;;
21030;SDS011;61072;47.808;7.636;2022-09-12T12:00:16;2.50;;;1.70;;
21030;SDS011;61072;47.808;7.636;2022-09-12T12:10:54;5.35;;;1.70;;
21030;SDS011;61072;47.808;7.636;2022-09-12T12:13:30;3.22;;;1.58;;
21030;SDS011;61072;47.808;7.636;2022-09-12T12:16:05;4.70;;;1.50;;
21030;SDS011;61072;47.808;7.636;2022-09-12T12:18:37;2.05;;;1.50;;
21030;SDS011;61072;47.808;7.636;2022-09-12T12:29:09;2.67;;;1.60;;
21030;SDS011;61072;47.808;7.636;2022-09-12T12:36:56;2.83;;;1.00;;
21030;SDS011;61072;47.808;7.636;2022-09-12T12:41:59;2.15;;;1.10;;
21030;SDS011;61072;47.808;7.636;2022-09-12T12:47:18;1.08;;;0.75;;
21030;SDS011;61072;47.808;7.636;2022-09-12T12:49:57;1.42;;;1.00;;
21030;SDS011;61072;47.808;7.636;2022-09-12T12:55:02;2.47;;;1.00;;
21030;SDS011;61072;47.808;7.636;2022-09-12T13:02:49;1.48;;;0.90;;
21030;SDS011;61072;47.808;7.636;2022-09-12T13:05:39;1.23;;;0.65;;
21030;SDS011;61072;47.808;7.636;2022-09-12T13:10:50;3.00;;;0.73;;
21030;SDS011;61072;47.808;7.636;2022-09-12T13:13:27;0.90;;;0.63;;
21030;SDS011;61072;47.808;7.636;2022-09-12T13:15:56;2.75;;;0.75;;
21030;SDS011;61072;47.808;7.636;2022-09-12T13:18:24;1.10;;;0.57;;
21030;SDS011;61072;47.808;7.636;2022-09-12T13:21:13;1.42;;;0.77;;
21030;SDS011;61072;47.808;7.636;2022-09-12T13:23:42;2.60;;;0.73;;
21030;SDS011;61072;47.808;7.636;2022-09-12T13:26:22;0.52;;;0.50;;
21030;SDS011;61072;47.808;7.636;2022-09-12T13:29:07;3.05;;;0.70;;
21030;SDS011;61072;47.808;7.636;2022-09-12T13:31:34;7.00;;;1.70;;
21030;SDS011;61072;47.808;7.636;2022-09-12T13:34:03;1.02;;;0.35;;
21030;SDS011;61072;47.808;7.636;2022-09-12T13:36:44;2.47;;;0.50;;
21030;SDS011;61072;47.808;7.636;2022-09-12T13:39:44;2.42;;;0.60;;
21030;SDS011;61072;47.808;7.636;2022-09-12T13:45:11;1.27;;;0.30;;
21030;SDS011;61072;47.808;7.636;2022-09-12T13:47:52;1.48;;;0.40;;
21030;SDS011;61072;47.808;7.636;2022-09-12T13:50:32;0.50;;;0.30;;
21030;SDS011;61072;47.808;7.636;2022-09-12T13:53:10;0.70;;;0.40;;
21030;SDS011;61072;47.808;7.636;2022-09-12T13:55:41;0.30;;;0.30;;
21030;SDS011;61072;47.808;7.636;2022-09-12T14:00:46;0.40;;;0.30;;
21030;SDS011;61072;47.808;7.636;2022-09-12T14:06:11;1.77;;;0.30;;
21030;SDS011;61072;47.808;7.636;2022-09-12T14:08:38;1.48;;;0.40;;
21030;SDS011;61072;47.808;7.636;2022-09-12T14:11:07;0.47;;;0.28;;
21030;SDS011;61072;47.808;7.636;2022-09-12T14:13:36;1.27;;;0.30;;
21030;SDS011;61072;47.808;7.636;2022-09-12T14:16:04;1.55;;;0.32;;
21030;SDS011;61072;47.808;7.636;2022-09-12T14:18:35;0.55;;;0.28;;
21030;SDS011;61072;47.808;7.636;2022-09-12T14:23:37;1.92;;;0.40;;
21030;SDS011;61072;47.808;7.636;2022-09-12T14:26:08;0.17;;;0.17;;
21030;SDS011;61072;47.808;7.636;2022-09-12T14:28:41;0.47;;;0.20;;
21030;SDS011;61072;47.808;7.636;2022-09-12T14:33:47;0.20;;;0.20;;
21030;SDS011;61072;47.808;7.636;2022-09-12T14:36:17;0.15;;;0.15;;
21030;SDS011;61072;47.808;7.636;2022-09-12T14:39:04;2.22;;;0.25;;
21030;SDS011;61072;47.808;7.636;2022-09-12T14:41:34;0.30;;;0.30;;
21030;SDS011;61072;47.808;7.636;2022-09-12T14:44:04;0.38;;;0.20;;
21030;SDS011;61072;47.808;7.636;2022-09-12T14:46:39;0.10;;;0.10;;
21030;SDS011;61072;47.808;7.636;2022-09-12T14:49:09;2.63;;;0.15;;
21030;SDS011;61072;47.808;7.636;2022-09-12T14:51:40;0.20;;;0.20;;
21030;SDS011;61072;47.808;7.636;2022-09-12T14:56:56;0.52;;;0.30;;
21030;SDS011;61072;47.808;7.636;2022-09-12T15:07:28;0.20;;;0.20;;
21030;SDS011;61072;47.808;7.636;2022-09-12T15:10:19;2.28;;;0.32;;
21030;SDS011;61072;47.808;7.636;2022-09-12T15:15:40;0.55;;;0.20;;
21030;SDS011;61072;47.808;7.636;2022-09-12T15:18:09;1.75;;;0.28;;
21030;SDS011;61072;47.808;7.636;2022-09-12T15:20:37;1.13;;;0.25;;
21030;SDS011;61072;47.808;7.636;2022-09-12T15:23:06;1.10;;;0.20;;
21030;SDS011;61072;47.808;7.636;2022-09-12T15:25:39;1.38;;;0.20;;
21030;SDS011;61072;47.808;7.636;2022-09-12T15:28:40;2.40;;;0.40;;
21030;SDS011;61072;47.808;7.636;2022-09-12T15:31:04;1.73;;;0.30;;
21030;SDS011;61072;47.808;7.636;2022-09-12T15:33:40;3.88;;;0.30;;
21030;SDS011;61072;47.808;7.636;2022-09-12T15:36:10;0.57;;;0.40;;
21030;SDS011;61072;47.808;7.636;2022-09-12T15:38:42;0.38;;;0.20;;
21030;SDS011;61072;47.808;7.636;2022-09-12T15:41:20;0.40;;;0.40;;
21030;SDS011;61072;47.808;7.636;2022-09-12T15:43:48;0.63;;;0.28;;
21030;SDS011;61072;47.808;7.636;2022-09-12T15:46:15;1.38;;;0.25;;
21030;SDS011;61072;47.808;7.636;2022-09-12T15:48:43;0.35;;;0.20;;
21030;SDS011;61072;47.808;7.636;2022-09-12T15:51:11;1.50;;;0.20;;
21030;SDS011;61072;47.808;7.636;2022-09-12T15:53:41;0.68;;;0.30;;
21030;SDS011;61072;47.808;7.636;2022-09-12T15:56:08;1.65;;;0.20;;
21030;SDS011;61072;47.808;7.636;2022-09-12T15:58:35;0.55;;;0.30;;
21030;SDS011;61072;47.808;7.636;2022-09-12T16:01:22;1.58;;;0.30;;
21030;SDS011;61072;47.808;7.636;2022-09-12T16:03:49;3.40;;;0.20;;
21030;SDS011;61072;47.808;7.636;2022-09-12T16:06:16;0.73;;;0.30;;
21030;SDS011;61072;47.808;7.636;2022-09-12T16:08:42;1.65;;;0.30;;
21030;SDS011;61072;47.808;7.636;2022-09-12T16:11:11;3.63;;;0.38;;
21030;SDS011;61072;47.808;7.636;2022-09-12T16:13:47;1.05;;;0.40;;
21030;SDS011;61072;47.808;7.636;2022-09-12T16:16:14;0.50;;;0.50;;
21030;SDS011;61072;47.808;7.636;2022-09-12T16:18:41;2.05;;;0.68;;
21030;SDS011;61072;47.808;7.636;2022-09-12T16:21:08;3.17;;;0.68;;
21030;SDS011;61072;47.808;7.636;2022-09-12T16:23:43;1.08;;;0.55;;
21030;SDS011;61072;47.808;7.636;2022-09-12T16:26:11;0.73;;;0.50;;
21030;SDS011;61072;47.808;7.636;2022-09-12T16:28:37;2.70;;;0.57;;
21030;SDS011;61072;47.808;7.636;2022-09-12T16:31:05;1.38;;;0.95;;
21030;SDS011;61072;47.808;7.636;2022-09-12T16:33:33;3.58;;;0.77;;
21030;SDS011;61072;47.808;7.636;2022-09-12T16:36:00;2.10;;;0.68;;
21030;SDS011;61072;47.808;7.636;2022-09-12T16:38:29;2.88;;;0.52;;
21030;SDS011;61072;47.808;7.636;2022-09-12T16:41:03;1.85;;;0.60;;
21030;SDS011;61072;47.808;7.636;2022-09-12T16:43:32;1.30;;;1.20;;
21030;SDS011;61072;47.808;7.636;2022-09-12T16:46:10;9.43;;;5.50;;
21030;SDS011;61072;47.808;7.636;2022-09-12T16:48:42;4.03;;;2.17;;
21030;SDS011;61072;47.808;7.636;2022-09-12T16:51:22;2.30;;;1.20;;
21030;SDS011;61072;47.808;7.636;2022-09-12T16:53:53;1.73;;;0.60;;
21030;SDS011;61072;47.808;7.636;2022-09-12T16:56:20;1.02;;;0.38;;
21030;SDS011;61072;47.808;7.636;2022-09-12T16:58:48;2.08;;;0.20;;
21030;SDS011;61072;47.808;7.636;2022-09-12T17:01:16;5.18;;;0.40;;
21030;SDS011;61072;47.808;7.636;2022-09-12T17:03:44;2.40;;;0.38;;
21030;SDS011;61072;47.808;7.636;2022-09-12T17:06:13;0.70;;;0.40;;
21030;SDS011;61072;47.808;7.636;2022-09-12T17:08:42;4.95;;;0.45;;
21030;SDS011;61072;47.808;7.636;2022-09-12T17:11:11;1.10;;;0.28;;
21030;SDS011;61072;47.808;7.636;2022-09-12T17:13:40;2.03;;;0.55;;
21030;SDS011;61072;47.808;7.636;2022-09-12T17:16:29;0.32;;;0.25;;
21030;SDS011;61072;47.808;7.636;2022-09-12T17:18:56;0.30;;;0.25;;
21030;SDS011;61072;47.808;7.636;2022-09-12T17:21:22;0.73;;;0.30;;
21030;SDS011;61072;47.808;7.636;2022-09-12T17:23:49;2.03;;;0.25;;
21030;SDS011;61072;47.808;7.636;2022-09-12T17:26:16;1.65;;;0.25;;
21030;SDS011;61072;47.808;7.636;2022-09-12T17:28:43;2.47;;;0.30;;
21030;SDS011;61072;47.808;7.636;2022-09-12T17:31:11;1.13;;;0.50;;
21030;SDS011;61072;47.808;7.636;2022-09-12T17:33:39;0.77;;;0.30;;
21030;SDS011;61072;47.808;7.636;2022-09-12T17:36:08;1.48;;;0.50;;
21030;SDS011;61072;47.808;7.636;2022-09-12T17:38:37;0.52;;;0.20;;
21030;SDS011;61072;47.808;7.636;2022-09-12T17:41:09;0.30;;;0.30;;
21030;SDS011;61072;47.808;7.636;2022-09-12T17:43:43;0.60;;;0.20;;
21030;SDS011;61072;47.808;7.636;2022-09-12T17:46:18;2.65;;;0.50;;
21030;SDS011;61072;47.808;7.636;2022-09-12T17:48:55;2.45;;;0.38;;
21030;SDS011;61072;47.808;7.636;2022-09-12T17:51:23;0.32;;;0.20;;
21030;SDS011;61072;47.808;7.636;2022-09-12T17:53:59;1.55;;;0.20;;
21030;SDS011;61072;47.808;7.636;2022-09-12T17:56:28;3.90;;;1.30;;
21030;SDS011;61072;47.808;7.636;2022-09-12T17:58:56;1.02;;;0.43;;
21030;SDS011;61072;47.808;7.636;2022-09-12T18:01:25;0.80;;;0.40;;
21030;SDS011;61072;47.808;7.636;2022-09-12T18:04:11;4.72;;;0.63;;
21030;SDS011;61072;47.808;7.636;2022-09-12T18:06:37;1.45;;;0.40;;